createdAt,value
2018-09-25T00:00:34.668Z,5.40
2018-09-25T00:03:08.209Z,5.45
2018-09-25T00:05:41.808Z,5.40
2018-09-25T00:08:15.301Z,5.60
2018-09-25T00:10:48.752Z,5.80
2018-09-25T00:13:22.197Z,5.30
2018-09-25T00:15:55.704Z,5.42
2018-09-25T00:18:29.935Z,5.15
2018-09-25T00:21:05.352Z,5.22
2018-09-25T00:23:39.173Z,6.20
2018-09-25T00:26:12.697Z,5.28
2018-09-25T00:28:52.587Z,4.90
2018-09-25T00:31:26.188Z,6.00
2018-09-25T00:33:59.571Z,5.40
2018-09-25T00:36:33.151Z,6.05
2018-09-25T00:39:06.783Z,5.62
2018-09-25T00:41:40.081Z,5.80
2018-09-25T00:44:14.692Z,5.92
2018-09-25T00:46:48.509Z,5.95
2018-09-25T00:49:22.271Z,6.05
2018-09-25T00:51:55.747Z,6.78
2018-09-25T00:54:29.402Z,5.90
2018-09-25T00:57:02.800Z,6.35
2018-09-25T00:59:36.355Z,6.10
2018-09-25T01:02:12.133Z,6.20
2018-09-25T01:04:45.521Z,5.70
2018-09-25T01:07:19.267Z,6.20
2018-09-25T01:09:52.752Z,6.35
2018-09-25T01:12:26.476Z,6.33
2018-09-25T01:15:00.365Z,6.85
2018-09-25T01:17:33.948Z,6.37
2018-09-25T01:20:07.546Z,6.60
2018-09-25T01:22:41.082Z,6.87
2018-09-25T01:25:14.412Z,7.10
2018-09-25T01:27:52.260Z,6.60
2018-09-25T01:30:25.956Z,6.85
2018-09-25T01:32:59.873Z,7.05
2018-09-25T01:35:36.372Z,6.42
2018-09-25T01:38:10.008Z,6.97
2018-09-25T01:40:44.045Z,6.70
2018-09-25T01:43:18.778Z,6.80
2018-09-25T01:45:52.380Z,6.95
2018-09-25T01:48:26.012Z,6.50
2018-09-25T01:50:59.677Z,6.37
2018-09-25T01:53:33.047Z,7.67
2018-09-25T01:56:06.847Z,7.25
2018-09-25T01:58:40.476Z,6.95
2018-09-25T02:01:13.985Z,7.97
2018-09-25T02:03:47.825Z,7.15
2018-09-25T02:06:21.488Z,7.00
2018-09-25T02:08:55.182Z,7.80
2018-09-25T02:11:28.844Z,7.60
2018-09-25T02:14:02.397Z,6.95
2018-09-25T02:16:36.191Z,7.22
2018-09-25T02:19:10.041Z,7.28
2018-09-25T02:21:43.875Z,7.37
2018-09-25T02:24:17.514Z,7.55
2018-09-25T02:26:50.976Z,7.50
2018-09-25T02:29:24.692Z,7.42
2018-09-25T02:31:58.510Z,7.67
2018-09-25T02:34:31.679Z,7.22
2018-09-25T02:37:05.512Z,6.72
2018-09-25T02:39:39.063Z,8.08
2018-09-25T02:42:14.789Z,6.85
2018-09-25T02:44:48.388Z,7.15
2018-09-25T02:47:21.928Z,8.40
2018-09-25T02:49:56.436Z,6.80
2018-09-25T02:52:29.887Z,7.25
2018-09-25T02:55:03.464Z,7.12
2018-09-25T02:57:37.007Z,6.90
2018-09-25T03:00:10.671Z,6.72
2018-09-25T03:02:44.193Z,7.40
2018-09-25T03:05:17.951Z,7.30
2018-09-25T03:07:52.040Z,6.75
2018-09-25T03:10:26.002Z,6.67
2018-09-25T03:12:59.885Z,7.60
2018-09-25T03:15:33.178Z,7.35
2018-09-25T03:18:06.704Z,7.05
2018-09-25T03:20:40.562Z,7.08
2018-09-25T03:23:14.198Z,6.75
2018-09-25T03:25:47.646Z,7.75
2018-09-25T03:28:21.317Z,7.08
2018-09-25T03:30:54.574Z,6.45
2018-09-25T03:33:28.144Z,6.42
2018-09-25T03:36:02.727Z,6.78
2018-09-25T03:38:36.565Z,6.40
2018-09-25T03:41:09.904Z,7.25
2018-09-25T03:43:43.775Z,6.87
2018-09-25T03:46:17.241Z,6.83
2018-09-25T03:48:50.816Z,6.42
2018-09-25T03:51:24.545Z,5.70
2018-09-25T03:53:58.051Z,5.70
2018-09-25T03:56:31.679Z,6.15
2018-09-25T03:59:05.369Z,5.90
2018-09-25T04:01:38.833Z,6.25
2018-09-25T04:04:12.462Z,6.40
2018-09-25T04:06:45.951Z,6.25
2018-09-25T04:09:19.690Z,6.62
2018-09-25T04:11:53.224Z,6.15
2018-09-25T04:14:26.589Z,6.50
2018-09-25T04:17:00.077Z,7.70
2018-09-25T04:19:33.378Z,6.53
2018-09-25T04:22:06.616Z,5.45
2018-09-25T04:24:40.235Z,7.10
2018-09-25T04:27:13.966Z,6.00
2018-09-25T04:29:47.449Z,6.53
2018-09-25T04:32:20.668Z,6.90
2018-09-25T04:34:54.604Z,6.67
2018-09-25T04:37:28.280Z,6.25
2018-09-25T04:40:01.462Z,5.80
2018-09-25T04:42:35.279Z,7.67
2018-09-25T04:45:08.948Z,6.28
2018-09-25T04:47:42.471Z,6.80
2018-09-25T04:50:15.985Z,6.60
2018-09-25T04:52:49.448Z,6.40
2018-09-25T04:55:22.860Z,5.83
2018-09-25T04:57:56.496Z,6.20
2018-09-25T05:00:30.909Z,6.28
2018-09-25T05:03:04.530Z,6.22
2018-09-25T05:05:38.291Z,6.47
2018-09-25T05:08:12.119Z,7.10
2018-09-25T05:10:45.810Z,6.62
2018-09-25T05:13:19.236Z,7.00
2018-09-25T05:15:53.211Z,6.75
2018-09-25T05:18:26.411Z,6.67
2018-09-25T05:20:59.743Z,6.78
2018-09-25T05:23:33.583Z,6.65
2018-09-25T05:26:06.971Z,6.97
2018-09-25T05:28:40.427Z,7.20
2018-09-25T05:31:13.927Z,6.90
2018-09-25T05:33:47.611Z,6.67
2018-09-25T05:36:21.272Z,6.28
2018-09-25T05:38:54.925Z,6.70
2018-09-25T05:41:28.519Z,5.90
2018-09-25T05:44:02.234Z,7.53
2018-09-25T05:46:35.660Z,7.60
2018-09-25T05:49:09.140Z,6.45
2018-09-25T05:51:42.796Z,6.10
2018-09-25T05:54:17.256Z,6.25
2018-09-25T05:56:51.015Z,7.08
2018-09-25T05:59:24.331Z,5.70
2018-09-25T06:01:57.860Z,6.70
2018-09-25T06:04:31.251Z,5.95
2018-09-25T06:07:05.293Z,6.47
2018-09-25T06:09:38.791Z,7.50
2018-09-25T06:12:12.643Z,6.62
2018-09-25T06:14:46.475Z,7.00
2018-09-25T06:17:20.040Z,5.60
2018-09-25T06:19:53.519Z,7.72
2018-09-25T06:22:27.177Z,6.42
2018-09-25T06:25:00.772Z,5.50
2018-09-25T06:27:34.241Z,5.00
2018-09-25T06:30:07.964Z,5.12
2018-09-25T06:32:41.675Z,5.40
2018-09-25T06:35:18.402Z,6.35
2018-09-25T06:37:51.928Z,5.47
2018-09-25T06:40:25.556Z,5.37
2018-09-25T06:42:59.063Z,5.40
2018-09-25T06:45:32.664Z,5.28
2018-09-25T06:48:06.392Z,5.67
2018-09-25T06:50:39.724Z,5.22
2018-09-25T06:53:13.508Z,4.53
2018-09-25T06:55:47.412Z,5.00
2018-09-25T06:58:21.105Z,5.40
2018-09-25T07:00:54.725Z,4.97
2018-09-25T07:03:28.153Z,5.30
2018-09-25T07:06:01.806Z,4.42
2018-09-25T07:08:39.016Z,5.10
2018-09-25T07:11:12.705Z,5.65
2018-09-25T07:13:46.230Z,5.28
2018-09-25T07:16:19.983Z,4.95
2018-09-25T07:18:53.531Z,4.53
2018-09-25T07:21:26.963Z,3.90
2018-09-25T07:24:00.759Z,4.50
2018-09-25T07:26:34.299Z,3.50
2018-09-25T07:29:07.734Z,4.30
2018-09-25T07:31:42.460Z,4.30
2018-09-25T07:34:16.053Z,4.45
2018-09-25T07:36:49.495Z,5.20
2018-09-25T07:39:23.287Z,3.67
2018-09-25T07:41:56.732Z,3.60
2018-09-25T07:44:31.209Z,4.00
2018-09-25T07:47:05.249Z,4.80
2018-09-25T07:49:38.744Z,4.05
2018-09-25T07:52:12.523Z,3.90
2018-09-25T07:54:45.963Z,4.20
2018-09-25T07:57:19.707Z,4.20
2018-09-25T07:59:53.129Z,4.57
2018-09-25T08:02:26.975Z,3.50
2018-09-25T08:05:00.310Z,4.20
2018-09-25T08:07:34.105Z,3.77
2018-09-25T08:10:07.423Z,3.80
2018-09-25T08:12:42.175Z,2.90
2018-09-25T08:15:15.808Z,3.10
2018-09-25T08:17:49.428Z,3.27
2018-09-25T08:20:23.016Z,3.30
2018-09-25T08:22:58.834Z,3.63
2018-09-25T08:25:32.239Z,3.60
2018-09-25T08:28:05.863Z,3.30
2018-09-25T08:30:39.616Z,3.10
2018-09-25T08:33:13.023Z,3.47
2018-09-25T08:35:46.776Z,2.70
2018-09-25T08:38:20.335Z,2.80
2018-09-25T08:40:53.923Z,3.00
2018-09-25T08:43:27.484Z,3.33
2018-09-25T08:46:01.139Z,3.13
2018-09-25T08:48:35.587Z,3.03
2018-09-25T08:51:08.730Z,2.63
2018-09-25T08:53:41.922Z,2.63
2018-09-25T08:56:15.505Z,3.30
2018-09-25T08:58:48.752Z,4.60
2018-09-25T09:01:22.546Z,3.07
2018-09-25T09:03:55.997Z,2.53
2018-09-25T09:06:29.652Z,2.70
2018-09-25T09:09:03.220Z,3.93
2018-09-25T09:11:36.828Z,2.53
2018-09-25T09:14:10.440Z,2.57
2018-09-25T09:16:44.169Z,2.43
2018-09-25T09:19:17.995Z,2.50
2018-09-25T09:21:52.414Z,2.37
2018-09-25T09:24:25.708Z,2.83
2018-09-25T09:26:59.420Z,2.90
2018-09-25T09:29:32.871Z,3.10
2018-09-25T09:32:06.099Z,2.27
2018-09-25T09:34:39.830Z,2.40
2018-09-25T09:37:13.237Z,2.80
2018-09-25T09:39:46.855Z,2.23
2018-09-25T09:42:20.367Z,2.27
2018-09-25T09:44:54.091Z,2.30
2018-09-25T09:47:27.903Z,2.83
2018-09-25T09:50:03.651Z,2.60
2018-09-25T09:52:37.190Z,2.60
2018-09-25T09:55:10.743Z,2.43
2018-09-25T09:57:44.160Z,2.40
2018-09-25T10:00:17.712Z,2.63
2018-09-25T10:02:50.827Z,2.83
2018-09-25T10:05:24.360Z,3.20
2018-09-25T10:07:57.752Z,2.60
2018-09-25T10:10:31.484Z,2.50
2018-09-25T10:13:05.083Z,2.23
2018-09-25T10:15:38.736Z,2.47
2018-09-25T10:18:12.282Z,2.60
2018-09-25T10:20:45.773Z,2.13
2018-09-25T10:23:19.432Z,2.43
2018-09-25T10:25:52.657Z,2.27
2018-09-25T10:28:25.867Z,2.43
2018-09-25T10:30:59.566Z,2.87
2018-09-25T10:33:33.213Z,2.47
2018-09-25T10:36:06.748Z,2.20
2018-09-25T10:38:40.316Z,2.40
2018-09-25T10:41:14.838Z,2.77
2018-09-25T10:43:48.162Z,2.83
2018-09-25T10:46:21.941Z,2.23
2018-09-25T10:48:55.475Z,2.50
2018-09-25T10:51:29.084Z,3.17
2018-09-25T10:54:02.689Z,4.50
2018-09-25T10:56:36.292Z,3.73
2018-09-25T10:59:09.937Z,2.53
2018-09-25T11:01:43.547Z,2.43
2018-09-25T11:04:17.495Z,2.40
2018-09-25T11:06:51.004Z,2.87
2018-09-25T11:09:24.439Z,2.60
2018-09-25T11:11:57.999Z,2.47
2018-09-25T11:14:31.437Z,2.70
2018-09-25T11:17:05.129Z,2.73
2018-09-25T11:19:38.568Z,3.20
2018-09-25T11:22:12.351Z,2.27
2018-09-25T11:24:45.877Z,2.70
2018-09-25T11:27:19.399Z,2.60
2018-09-25T11:29:53.136Z,2.20
2018-09-25T11:32:26.735Z,3.10
2018-09-25T11:35:00.143Z,2.20
2018-09-25T11:37:33.620Z,2.70
2018-09-25T11:40:07.064Z,2.40
2018-09-25T11:42:40.856Z,3.23
2018-09-25T11:45:14.324Z,2.47
2018-09-25T11:47:48.060Z,2.97
2018-09-25T11:50:21.655Z,3.00
2018-09-25T11:52:55.352Z,2.60
2018-09-25T11:55:29.321Z,3.60
2018-09-25T11:58:02.680Z,2.80
2018-09-25T12:00:36.347Z,2.77
2018-09-25T12:03:09.807Z,3.37
2018-09-25T12:05:43.495Z,2.50
2018-09-25T12:08:17.247Z,2.70
2018-09-25T12:10:50.687Z,2.70
2018-09-25T12:13:24.347Z,3.10
2018-09-25T12:15:57.935Z,2.97
2018-09-25T12:18:31.616Z,2.93
2018-09-25T12:21:05.161Z,2.93
2018-09-25T12:23:38.780Z,3.20
2018-09-25T12:26:12.183Z,3.73
2018-09-25T12:28:45.837Z,3.23
2018-09-25T12:31:19.537Z,2.85
2018-09-25T12:33:53.344Z,3.35
2018-09-25T12:36:27.161Z,2.30
2018-09-25T12:39:00.431Z,3.65
2018-09-25T12:41:33.777Z,3.00
2018-09-25T12:44:07.523Z,3.80
2018-09-25T12:46:41.182Z,3.60
2018-09-25T12:49:14.797Z,2.58
2018-09-25T12:51:48.465Z,2.40
2018-09-25T12:54:21.921Z,2.62
2018-09-25T12:56:55.516Z,2.00
2018-09-25T12:59:29.198Z,1.70
2018-09-25T13:02:02.737Z,2.40
2018-09-25T13:04:36.262Z,6.35
2018-09-25T13:07:09.540Z,4.15
2018-09-25T13:09:43.605Z,2.90
2018-09-25T13:12:17.104Z,2.10
2018-09-25T13:14:50.688Z,2.70
2018-09-25T13:17:24.384Z,2.25
2018-09-25T13:19:57.815Z,2.45
2018-09-25T13:22:31.335Z,2.30
2018-09-25T13:25:04.872Z,2.33
2018-09-25T13:27:38.457Z,2.40
2018-09-25T13:30:12.031Z,1.75
2018-09-25T13:32:45.519Z,1.80
2018-09-25T13:35:19.698Z,2.87
2018-09-25T13:37:53.336Z,2.15
2018-09-25T13:40:26.679Z,1.87
2018-09-25T13:43:00.132Z,2.20
2018-09-25T13:45:33.676Z,1.90
2018-09-25T13:48:07.368Z,2.52
2018-09-25T13:50:40.833Z,3.15
2018-09-25T13:53:14.403Z,2.50
2018-09-25T13:55:48.036Z,1.90
2018-09-25T13:58:21.664Z,2.20
2018-09-25T14:00:55.273Z,2.42
2018-09-25T14:03:28.787Z,2.70
2018-09-25T14:06:02.461Z,3.37
2018-09-25T14:08:36.044Z,2.75
2018-09-25T14:11:09.827Z,2.50
2018-09-25T14:13:43.620Z,2.42
2018-09-25T14:16:16.936Z,1.87
2018-09-25T14:18:50.203Z,1.95
2018-09-25T14:21:23.753Z,2.47
2018-09-25T14:23:57.016Z,1.72
2018-09-25T14:26:30.731Z,2.37
2018-09-25T14:29:04.311Z,3.37
2018-09-25T14:31:37.875Z,3.27
2018-09-25T14:34:11.373Z,2.75
2018-09-25T14:36:45.072Z,3.52
2018-09-25T14:39:18.928Z,3.05
2018-09-25T14:41:52.553Z,2.65
2018-09-25T14:44:26.245Z,2.50
2018-09-25T14:47:00.403Z,2.75
2018-09-25T14:49:34.692Z,3.33
2018-09-25T14:52:08.309Z,2.50
2018-09-25T14:54:41.891Z,2.27
2018-09-25T14:57:15.193Z,2.25
2018-09-25T14:59:48.640Z,3.02
2018-09-25T15:09:33.364Z,2.95
2018-09-25T15:12:06.680Z,2.92
2018-09-25T15:14:40.015Z,3.60
2018-09-25T15:17:13.464Z,2.70
2018-09-25T15:19:47.219Z,3.50
2018-09-25T15:22:21.497Z,2.90
2018-09-25T15:24:54.807Z,3.30
2018-09-25T15:27:28.529Z,2.90
2018-09-25T15:30:02.036Z,2.37
2018-09-25T15:32:35.634Z,2.20
2018-09-25T15:35:09.301Z,2.30
2018-09-25T15:37:42.983Z,2.20
2018-09-25T15:40:16.487Z,2.65
2018-09-25T15:42:50.053Z,4.62
2018-09-25T15:45:23.570Z,4.17
2018-09-25T15:47:57.342Z,3.75
2018-09-25T15:50:32.104Z,3.25
2018-09-25T15:53:05.751Z,2.90
2018-09-25T15:55:39.341Z,2.45
2018-09-25T15:58:12.920Z,3.00
2018-09-25T16:00:46.575Z,3.10
2018-09-25T16:03:20.113Z,3.50
2018-09-25T16:05:53.769Z,3.37
2018-09-25T16:08:27.329Z,3.30
2018-09-25T16:11:00.799Z,3.95
2018-09-25T16:13:34.181Z,3.33
2018-09-25T16:16:08.628Z,2.50
2018-09-25T16:18:42.310Z,3.52
2018-09-25T16:21:15.841Z,3.02
2018-09-25T16:23:49.569Z,3.40
2018-09-25T16:26:22.900Z,3.25
2018-09-25T16:28:56.456Z,3.65
2018-09-25T16:31:29.793Z,3.25
2018-09-25T16:34:03.240Z,3.15
2018-09-25T16:36:36.521Z,3.47
2018-09-25T16:39:13.639Z,3.30
2018-09-25T16:41:50.410Z,3.55
2018-09-25T16:44:25.104Z,3.37
2018-09-25T16:46:58.820Z,3.25
2018-09-25T16:49:32.150Z,3.37
2018-09-25T16:52:05.909Z,3.65
2018-09-25T16:54:39.507Z,3.60
2018-09-25T16:57:12.590Z,3.95
2018-09-25T16:59:47.472Z,3.83
2018-09-25T17:02:21.350Z,4.12
2018-09-25T17:04:54.746Z,3.40
2018-09-25T17:07:27.971Z,3.30
2018-09-25T17:10:01.464Z,4.15
2018-09-25T17:12:34.992Z,3.50
2018-09-25T17:15:08.591Z,3.92
2018-09-25T17:17:42.120Z,3.90
2018-09-25T17:20:15.412Z,3.85
2018-09-25T17:22:49.139Z,3.25
2018-09-25T17:25:22.731Z,3.65
2018-09-25T17:27:56.352Z,3.40
2018-09-25T17:30:30.065Z,3.62
2018-09-25T17:33:03.503Z,4.10
2018-09-25T17:35:37.264Z,4.60
2018-09-25T17:38:11.078Z,4.33
2018-09-25T17:40:44.470Z,2.98
2018-09-25T17:43:18.007Z,3.10
2018-09-25T17:45:51.629Z,2.98
2018-09-25T17:48:25.112Z,3.42
2018-09-25T17:50:58.650Z,4.75
2018-09-25T17:53:32.427Z,3.10
2018-09-25T17:56:05.926Z,3.05
2018-09-25T17:58:39.399Z,3.10
2018-09-25T18:01:13.272Z,2.65
2018-09-25T18:03:46.872Z,2.77
2018-09-25T18:06:21.179Z,2.70
2018-09-25T18:08:54.397Z,2.90
2018-09-25T18:11:27.884Z,3.62
2018-09-25T18:14:01.613Z,3.80
2018-09-25T18:16:34.995Z,2.80
2018-09-25T18:19:08.364Z,2.55
2018-09-25T18:21:41.929Z,2.83
2018-09-25T18:24:14.984Z,2.77
2018-09-25T18:26:48.591Z,3.25
2018-09-25T18:29:22.063Z,3.70
2018-09-25T18:31:55.868Z,3.10
2018-09-25T18:34:29.382Z,3.42
2018-09-25T18:37:03.072Z,5.62
2018-09-25T18:39:36.681Z,3.83
2018-09-25T18:42:10.154Z,2.98
2018-09-25T18:44:43.764Z,2.25
2018-09-25T18:47:17.404Z,2.47
2018-09-25T18:49:51.028Z,2.55
2018-09-25T18:52:25.793Z,3.00
2018-09-25T18:54:59.255Z,2.52
2018-09-25T18:57:33.045Z,2.22
2018-09-25T19:00:06.737Z,2.27
2018-09-25T19:02:40.394Z,2.70
2018-09-25T19:05:13.849Z,2.95
2018-09-25T19:07:47.274Z,2.58
2018-09-25T19:10:21.011Z,2.00
2018-09-25T19:12:54.605Z,2.50
2018-09-25T19:15:28.272Z,2.40
2018-09-25T19:18:01.813Z,2.42
2018-09-25T19:20:35.504Z,3.00
2018-09-25T19:23:08.660Z,2.67
2018-09-25T19:25:42.361Z,3.15
2018-09-25T19:28:16.011Z,2.55
2018-09-25T19:30:49.540Z,2.58
2018-09-25T19:33:22.835Z,2.40
2018-09-25T19:35:57.423Z,2.92
2018-09-25T19:38:30.928Z,2.35
2018-09-25T19:41:04.584Z,2.47
2018-09-25T19:43:38.167Z,2.50
2018-09-25T19:46:11.686Z,2.75
2018-09-25T19:48:45.353Z,2.72
2018-09-25T19:51:18.895Z,2.10
2018-09-25T19:53:53.530Z,2.15
2018-09-25T19:56:27.287Z,2.83
2018-09-25T19:59:01.067Z,7.70
2018-09-25T20:01:34.523Z,4.10
2018-09-25T20:04:07.973Z,8.88
2018-09-25T20:06:41.292Z,2.65
2018-09-25T20:09:15.079Z,3.10
2018-09-25T20:11:48.607Z,3.17
2018-09-25T20:14:22.123Z,4.55
2018-09-25T20:16:55.825Z,3.90
2018-09-25T20:19:30.656Z,2.75
2018-09-25T20:22:03.710Z,3.83
2018-09-25T20:24:37.295Z,2.55
2018-09-25T20:27:10.640Z,3.87
2018-09-25T20:29:44.132Z,2.80
2018-09-25T20:32:17.824Z,3.40
2018-09-25T20:34:51.408Z,2.70
2018-09-25T20:37:24.821Z,2.65
2018-09-25T20:39:58.538Z,2.65
2018-09-25T20:42:32.157Z,5.60
2018-09-25T20:45:05.474Z,4.65
2018-09-25T20:47:39.179Z,3.75
2018-09-25T20:50:12.515Z,3.87
2018-09-25T20:52:46.228Z,3.60
2018-09-25T20:55:19.784Z,2.75
2018-09-25T20:57:53.072Z,3.00
2018-09-25T21:00:26.680Z,2.85
2018-09-25T21:03:00.408Z,2.65
2018-09-25T21:05:33.717Z,3.12
2018-09-25T21:08:07.416Z,2.95
2018-09-25T21:10:41.119Z,3.08
2018-09-25T21:13:14.804Z,3.75
2018-09-25T21:15:48.348Z,3.40
2018-09-25T21:18:22.795Z,2.67
2018-09-25T21:20:56.503Z,2.52
2018-09-25T21:23:29.946Z,2.55
2018-09-25T21:26:03.467Z,2.70
2018-09-25T21:28:36.821Z,3.22
2018-09-25T21:31:10.623Z,3.33
2018-09-25T21:33:44.140Z,2.90
2018-09-25T21:36:17.790Z,2.75
2018-09-25T21:38:51.553Z,2.98
2018-09-25T21:41:25.400Z,3.35
2018-09-25T21:43:58.711Z,3.50
2018-09-25T21:46:32.153Z,3.50
2018-09-25T21:49:05.874Z,3.47
2018-09-25T21:51:39.510Z,3.30
2018-09-25T21:54:13.044Z,3.10
2018-09-25T21:56:46.653Z,2.90
2018-09-25T21:59:20.127Z,4.60
2018-09-25T22:01:53.856Z,4.05
2018-09-25T22:04:28.584Z,3.98
2018-09-25T22:07:02.075Z,3.02
2018-09-25T22:09:35.784Z,2.90
2018-09-25T22:12:09.387Z,3.65
2018-09-25T22:14:43.098Z,3.12
2018-09-25T22:17:16.501Z,3.50
2018-09-25T22:19:50.439Z,3.33
2018-09-25T22:22:24.170Z,3.15
2018-09-25T22:24:58.008Z,3.10
2018-09-25T22:27:31.875Z,3.47
2018-09-25T22:30:05.506Z,3.20
2018-09-25T22:32:39.432Z,3.37
2018-09-25T22:35:13.377Z,3.10
2018-09-25T22:37:47.167Z,3.15
2018-09-25T22:40:22.255Z,4.53
2018-09-25T22:42:56.333Z,4.00
2018-09-25T22:45:30.136Z,3.40
2018-09-25T22:48:04.025Z,3.40
2018-09-25T22:50:38.005Z,3.00
2018-09-25T22:53:11.885Z,2.58
2018-09-25T22:55:45.820Z,3.10
2018-09-25T22:58:19.655Z,2.70
2018-09-25T23:00:53.547Z,2.58
2018-09-25T23:03:27.087Z,2.83
2018-09-25T23:06:00.947Z,2.65
2018-09-25T23:08:34.443Z,2.70
2018-09-25T23:11:08.002Z,2.98
2018-09-25T23:13:41.237Z,3.15
2018-09-25T23:16:15.018Z,2.35
2018-09-25T23:18:48.543Z,2.27
2018-09-25T23:21:22.045Z,2.98
2018-09-25T23:23:55.428Z,2.70
2018-09-25T23:26:29.068Z,2.45
2018-09-25T23:29:02.559Z,3.15
2018-09-25T23:31:36.214Z,2.80
2018-09-25T23:34:10.936Z,2.70
2018-09-25T23:36:44.660Z,3.52
2018-09-25T23:39:17.545Z,3.27
2018-09-25T23:42:09.200Z,3.30
2018-09-25T23:44:45.507Z,3.27
2018-09-25T23:47:53.001Z,3.60
2018-09-25T23:50:31.504Z,3.55
2018-09-25T23:53:05.258Z,3.62
2018-09-25T23:55:40.779Z,3.20
2018-09-25T23:58:13.540Z,3.02
